createdAt,value
2019-02-20T00:02:09.116Z,8.63
2019-02-20T00:04:38.104Z,8.30
2019-02-20T00:07:07.062Z,8.43
2019-02-20T00:09:35.869Z,8.40
2019-02-20T00:12:04.782Z,8.00
2019-02-20T00:14:33.808Z,8.73
2019-02-20T00:17:02.799Z,8.23
2019-02-20T00:19:31.596Z,8.40
2019-02-20T00:22:00.444Z,8.73
2019-02-20T00:24:29.318Z,7.67
2019-02-20T00:26:59.669Z,8.03
2019-02-20T00:29:28.574Z,7.70
2019-02-20T00:31:57.621Z,7.07
2019-02-20T00:34:26.495Z,6.57
2019-02-20T00:36:55.513Z,7.30
2019-02-20T00:39:24.342Z,7.40
2019-02-20T00:41:53.220Z,7.30
2019-02-20T00:45:00.651Z,7.13
2019-02-20T00:47:41.861Z,7.40
2019-02-20T00:50:11.590Z,7.00
2019-02-20T00:52:49.844Z,7.40
2019-02-20T00:55:20.566Z,8.10
2019-02-20T00:57:49.435Z,8.00
2019-02-20T01:00:18.443Z,7.60
2019-02-20T01:02:47.329Z,7.93
2019-02-20T01:05:16.175Z,8.13
2019-02-20T01:07:47.412Z,8.00
2019-02-20T01:10:17.685Z,7.77
2019-02-20T01:12:55.593Z,7.10
2019-02-20T01:15:33.576Z,8.23
2019-02-20T01:18:03.230Z,8.83
2019-02-20T01:20:52.241Z,7.67
2019-02-20T01:23:29.824Z,6.87
2019-02-20T01:26:01.230Z,6.90
2019-02-20T01:28:30.446Z,7.60
2019-02-20T01:33:48.239Z,6.53
2019-02-20T01:37:10.999Z,7.10
2019-02-20T01:39:39.223Z,6.10
2019-02-20T01:42:20.405Z,6.43
2019-02-20T01:45:01.391Z,5.53
2019-02-20T01:47:45.313Z,5.83
2019-02-20T01:50:26.867Z,5.63
2019-02-20T01:53:10.627Z,5.97
2019-02-20T01:55:52.937Z,5.70
2019-02-20T01:58:34.215Z,5.53
2019-02-20T02:01:15.593Z,4.93
2019-02-20T02:03:56.441Z,5.60
2019-02-20T02:06:37.368Z,5.33
2019-02-20T02:09:17.934Z,4.97
2019-02-20T02:11:58.481Z,5.27
2019-02-20T02:14:39.267Z,5.57
2019-02-20T02:20:03.089Z,4.50
2019-02-20T02:22:43.664Z,4.67
2019-02-20T02:25:24.329Z,4.43
2019-02-20T02:28:05.153Z,4.07
2019-02-20T02:30:47.199Z,3.70
2019-02-20T02:33:27.991Z,3.90
2019-02-20T02:36:08.559Z,4.63
2019-02-20T02:38:48.986Z,4.00
2019-02-20T02:41:30.167Z,4.43
2019-02-20T02:43:59.125Z,3.53
2019-02-20T02:46:47.198Z,3.53
2019-02-20T02:49:35.392Z,3.83
2019-02-20T02:52:51.614Z,3.97
2019-02-20T02:55:32.670Z,3.53
2019-02-20T02:58:13.396Z,3.70
2019-02-20T03:00:54.849Z,4.17
2019-02-20T03:03:36.228Z,3.60
2019-02-20T03:06:15.472Z,3.10
2019-02-20T03:09:24.448Z,4.30
2019-02-20T03:12:12.607Z,4.20
2019-02-20T03:15:01.558Z,4.70
2019-02-20T03:17:49.799Z,4.53
2019-02-20T03:20:37.986Z,4.40
2019-02-20T03:23:26.027Z,3.83
2019-02-20T03:26:14.151Z,3.83
2019-02-20T03:29:02.451Z,4.17
2019-02-20T03:31:50.686Z,4.60
2019-02-20T03:34:40.576Z,5.00
2019-02-20T03:37:28.693Z,4.50
2019-02-20T03:40:16.815Z,5.00
2019-02-20T03:42:57.663Z,4.53
2019-02-20T03:48:20.425Z,5.50
2019-02-20T03:53:51.235Z,4.70
2019-02-20T03:56:25.726Z,5.73
2019-02-20T03:59:07.001Z,5.20
2019-02-20T04:01:47.669Z,5.20
2019-02-20T04:04:26.842Z,5.37
2019-02-20T04:07:14.972Z,6.20
2019-02-20T04:10:03.897Z,5.90
2019-02-20T04:12:51.940Z,5.60
2019-02-20T04:15:39.950Z,6.47
2019-02-20T04:18:28.001Z,6.20
2019-02-20T04:21:16.223Z,6.10
2019-02-20T04:24:04.439Z,5.77
2019-02-20T04:26:52.555Z,6.60
2019-02-20T04:29:40.626Z,7.43
2019-02-20T04:32:29.441Z,6.50
2019-02-20T04:35:17.148Z,6.97
2019-02-20T04:38:04.748Z,6.83
2019-02-20T04:40:52.887Z,7.00
2019-02-20T04:43:40.986Z,7.30
2019-02-20T04:46:29.103Z,7.70
2019-02-20T04:49:17.173Z,8.07
2019-02-20T04:52:05.308Z,7.70
2019-02-20T04:54:53.359Z,8.30
2019-02-20T04:57:22.222Z,7.43
2019-02-20T05:00:03.129Z,7.30
2019-02-20T05:02:44.466Z,7.80
2019-02-20T05:05:25.398Z,8.17
2019-02-20T05:08:06.374Z,8.20
2019-02-20T05:10:47.282Z,7.83
2019-02-20T05:13:28.040Z,7.43
2019-02-20T05:16:08.435Z,7.80
2019-02-20T05:18:49.555Z,7.30
2019-02-20T05:21:30.730Z,8.27
2019-02-20T05:24:11.776Z,8.20
2019-02-20T05:26:52.749Z,7.97
2019-02-20T05:29:31.890Z,7.73
2019-02-20T05:32:20.027Z,7.67
2019-02-20T05:35:08.135Z,7.40
2019-02-20T05:37:56.288Z,8.00
2019-02-20T05:40:44.399Z,8.30
2019-02-20T05:43:32.504Z,7.37
2019-02-20T05:46:20.529Z,7.10
2019-02-20T05:49:08.601Z,8.03
2019-02-20T05:51:56.706Z,7.27
2019-02-20T05:54:47.186Z,8.10
2019-02-20T05:57:36.497Z,7.70
2019-02-20T06:00:25.100Z,7.43
2019-02-20T06:03:13.189Z,7.83
2019-02-20T06:06:01.347Z,6.83
2019-02-20T06:08:49.832Z,8.00
2019-02-20T06:11:37.943Z,8.10
2019-02-20T06:14:26.010Z,7.43
2019-02-20T06:17:14.095Z,6.97
2019-02-20T06:20:02.274Z,8.20
2019-02-20T06:22:50.345Z,8.20
2019-02-20T06:25:38.390Z,8.00
2019-02-20T06:28:19.731Z,7.90
2019-02-20T07:17:56.041Z,7.13
2019-02-20T07:58:26.536Z,6.03
2019-02-20T08:01:07.646Z,7.20
2019-02-20T08:03:36.566Z,6.27
2019-02-20T08:06:24.592Z,6.00
2019-02-20T08:09:12.682Z,5.70
2019-02-20T08:15:08.538Z,7.97
2019-02-20T08:17:56.671Z,6.17
2019-02-20T08:20:44.750Z,6.57
2019-02-20T08:23:32.839Z,6.30
2019-02-20T08:26:20.912Z,7.10
2019-02-20T08:29:08.970Z,7.47
2019-02-20T08:31:57.054Z,6.73
2019-02-20T08:34:45.605Z,6.20
2019-02-20T08:37:33.732Z,7.07
2019-02-20T08:40:21.873Z,6.57
2019-02-20T08:43:10.016Z,6.47
2019-02-20T08:45:58.044Z,6.20
2019-02-20T08:48:46.230Z,7.00
2019-02-20T08:51:34.343Z,6.77
2019-02-20T08:54:15.665Z,6.20
2019-02-20T08:56:56.108Z,7.30
2019-02-20T08:59:37.394Z,7.07
2019-02-20T09:02:17.779Z,7.53
2019-02-20T09:04:58.582Z,6.37
2019-02-20T09:07:39.246Z,7.17
2019-02-20T09:10:09.001Z,6.90
2019-02-20T09:12:57.040Z,7.50
2019-02-20T09:15:45.420Z,7.80
2019-02-20T09:18:33.793Z,7.97
2019-02-20T09:21:21.958Z,7.43
2019-02-20T09:24:10.127Z,8.93
2019-02-20T09:26:58.195Z,7.10
2019-02-20T09:29:46.280Z,7.47
2019-02-20T09:32:34.311Z,7.80
2019-02-20T09:35:22.378Z,8.00
2019-02-20T09:38:10.622Z,8.20
2019-02-20T09:40:58.809Z,7.93
2019-02-20T09:43:47.446Z,7.27
2019-02-20T09:46:35.576Z,7.60
2019-02-20T09:49:04.459Z,7.50
2019-02-20T09:51:52.548Z,7.40
2019-02-20T09:54:39.727Z,7.70
2019-02-20T09:57:27.755Z,7.77
2019-02-20T09:59:56.610Z,8.13
2019-02-20T10:02:25.626Z,8.33
2019-02-20T10:04:54.335Z,7.90
2019-02-20T10:07:28.779Z,7.67
2019-02-20T10:09:57.967Z,7.80
2019-02-20T10:12:27.214Z,8.00
2019-02-20T10:14:56.417Z,8.03
2019-02-20T10:17:25.528Z,8.63
2019-02-20T10:19:54.823Z,7.70
2019-02-20T10:22:24.005Z,8.60
2019-02-20T10:30:44.404Z,8.40
2019-02-20T10:36:21.904Z,8.80
2019-02-20T10:39:10.373Z,8.10
2019-02-20T10:41:58.739Z,8.67
2019-02-20T10:44:46.905Z,8.13
2019-02-20T10:47:35.069Z,8.30
2019-02-20T10:50:23.115Z,8.80
2019-02-20T10:53:11.189Z,8.17
2019-02-20T10:55:53.181Z,9.13
2019-02-20T10:58:34.365Z,8.57
2019-02-20T11:03:57.535Z,7.60
2019-02-20T11:06:38.569Z,7.83
2019-02-20T11:09:19.445Z,8.00
2019-02-20T11:12:00.555Z,7.83
2019-02-20T11:14:41.179Z,7.70
2019-02-20T11:17:22.058Z,7.83
2019-02-20T11:20:03.294Z,8.83
2019-02-20T11:25:26.011Z,8.50
2019-02-20T11:28:07.288Z,8.33
2019-02-20T11:30:47.699Z,7.80
2019-02-20T11:33:28.234Z,8.63
2019-02-20T11:36:08.941Z,9.10
2019-02-20T11:38:49.697Z,8.80
2019-02-20T11:41:30.131Z,9.23
2019-02-20T11:44:11.305Z,9.13
2019-02-20T11:46:52.044Z,9.37
2019-02-20T11:49:33.467Z,9.20
2019-02-20T11:52:13.946Z,8.47
2019-02-20T11:54:54.671Z,9.73
2019-02-20T11:57:35.560Z,8.57
2019-02-20T12:00:16.209Z,8.23
2019-02-20T12:02:57.314Z,9.30
2019-02-20T12:05:38.160Z,8.00
2019-02-20T12:08:18.890Z,8.97
2019-02-20T12:10:59.697Z,9.17
2019-02-20T12:13:40.165Z,8.47
2019-02-20T12:16:21.122Z,9.17
2019-02-20T12:18:50.127Z,7.63
2019-02-20T12:21:19.180Z,8.17
2019-02-20T12:23:48.246Z,6.90
2019-02-20T12:26:36.311Z,8.30
2019-02-20T12:29:24.432Z,7.60
2019-02-20T12:32:12.820Z,7.30
2019-02-20T12:35:01.634Z,8.00
2019-02-20T12:37:49.788Z,8.20
2019-02-20T12:40:38.023Z,7.50
2019-02-20T12:43:26.336Z,8.20
2019-02-20T12:46:14.489Z,8.47
2019-02-20T12:49:02.782Z,8.63
2019-02-20T12:51:51.076Z,8.40
2019-02-20T12:57:14.827Z,9.30
2019-02-20T12:59:56.275Z,7.90
2019-02-20T13:02:38.606Z,8.60
2019-02-20T13:05:19.538Z,8.53
2019-02-20T13:08:00.047Z,8.53
2019-02-20T13:13:23.250Z,8.40
2019-02-20T13:16:09.429Z,8.97
2019-02-20T13:18:46.630Z,8.13
2019-02-20T13:21:30.596Z,8.70
2019-02-20T13:24:11.653Z,9.47
2019-02-20T13:26:53.748Z,9.20
2019-02-20T13:29:34.970Z,9.20
2019-02-20T13:32:16.255Z,8.70
2019-02-20T13:34:57.049Z,9.60
2019-02-20T13:37:44.360Z,8.70
2019-02-20T13:40:25.064Z,9.63
2019-02-20T13:43:06.445Z,8.90
2019-02-20T13:45:47.428Z,8.47
2019-02-20T13:48:28.976Z,9.30
2019-02-20T13:51:10.302Z,8.10
2019-02-20T13:53:51.576Z,8.90
2019-02-20T13:56:32.552Z,10.10
2019-02-20T13:59:13.361Z,9.40
2019-02-20T14:01:54.174Z,9.47
2019-02-20T14:04:36.547Z,8.53
2019-02-20T14:07:17.510Z,9.27
2019-02-20T14:09:58.866Z,8.60
2019-02-20T14:12:39.997Z,9.13
2019-02-20T14:15:20.971Z,8.43
2019-02-20T14:18:01.755Z,8.50
2019-02-20T14:23:26.475Z,9.03
2019-02-20T14:26:09.226Z,8.80
2019-02-20T14:29:11.931Z,7.80
2019-02-20T14:34:45.419Z,7.87
2019-02-20T14:37:31.767Z,8.70
2019-02-20T14:40:13.716Z,7.47
2019-02-20T14:42:56.123Z,8.40
2019-02-20T14:48:19.547Z,8.03
2019-02-20T14:53:46.289Z,8.77
2019-02-20T14:56:28.131Z,8.90
2019-02-20T14:59:12.248Z,8.07
2019-02-20T15:01:53.772Z,7.73
2019-02-20T15:04:35.154Z,8.97
2019-02-20T15:10:06.212Z,9.27
2019-02-20T15:15:30.072Z,10.37
2019-02-20T15:18:12.403Z,8.80
2019-02-20T15:20:53.898Z,8.53
2019-02-20T15:23:36.411Z,7.93
2019-02-20T15:29:10.913Z,8.43
2019-02-20T15:31:52.347Z,9.10
2019-02-20T15:37:19.713Z,8.50
2019-02-20T15:40:03.569Z,7.60
2019-02-20T15:42:44.505Z,8.27
2019-02-20T15:45:25.889Z,8.73
2019-02-20T15:48:07.675Z,8.60
2019-02-20T15:50:48.345Z,9.07
2019-02-20T15:53:29.079Z,8.97
2019-02-20T15:56:10.795Z,9.10
2019-02-20T15:58:51.761Z,8.83
2019-02-20T16:04:19.950Z,9.23
2019-02-20T16:07:01.386Z,8.13
2019-02-20T16:09:42.849Z,9.10
2019-02-20T16:15:11.846Z,8.73
2019-02-20T16:17:52.840Z,9.03
2019-02-20T16:20:39.516Z,9.40
2019-02-20T16:29:04.632Z,11.13
2019-02-20T16:34:47.320Z,10.03
2019-02-20T16:37:27.827Z,9.23
2019-02-20T16:43:09.048Z,8.90
2019-02-20T16:45:48.252Z,8.40
2019-02-20T16:48:17.350Z,9.07
2019-02-20T16:51:05.554Z,9.03
2019-02-20T16:53:53.774Z,8.67
2019-02-20T16:56:42.101Z,9.23
2019-02-20T17:12:09.582Z,8.00
2019-02-20T17:14:53.352Z,8.67
2019-02-20T17:17:34.336Z,9.67
2019-02-20T17:23:04.804Z,8.60
2019-02-20T17:25:50.976Z,9.20
2019-02-20T17:31:20.915Z,8.87
2019-02-20T17:34:02.140Z,9.30
2019-02-20T17:36:31.184Z,7.57
2019-02-20T17:39:03.305Z,8.10
2019-02-20T17:41:32.334Z,8.47
2019-02-20T17:44:42.189Z,8.50
2019-02-20T17:47:30.775Z,8.20
2019-02-20T17:50:22.053Z,7.70
2019-02-20T17:53:10.483Z,7.87
2019-02-20T17:56:23.785Z,7.47
2019-02-20T17:59:25.348Z,7.80
2019-02-20T18:02:16.585Z,7.90
2019-02-20T18:05:00.386Z,8.80
2019-02-20T18:19:26.280Z,8.40
2019-02-20T18:22:16.270Z,7.47
2019-02-20T18:25:04.577Z,7.57
2019-02-20T18:27:59.605Z,7.40
2019-02-20T18:34:09.588Z,7.47
2019-02-20T18:41:09.553Z,7.80
2019-02-20T18:43:57.838Z,8.20
2019-02-20T18:46:26.928Z,7.90
2019-02-20T18:49:15.047Z,7.93
2019-02-20T18:55:18.128Z,8.03
2019-02-20T18:58:06.440Z,8.27
2019-02-20T19:03:56.763Z,6.87
2019-02-20T19:06:39.898Z,7.10
2019-02-20T19:09:23.690Z,8.40
2019-02-20T19:12:07.836Z,7.80
2019-02-20T19:14:49.620Z,7.47
2019-02-20T19:17:31.240Z,8.23
2019-02-20T19:20:12.317Z,8.07
2019-02-20T19:22:54.091Z,7.70
2019-02-20T19:25:35.105Z,7.97
2019-02-20T19:28:18.579Z,7.13
2019-02-20T19:31:04.359Z,7.13
2019-02-20T19:33:45.071Z,7.80
2019-02-20T19:36:44.533Z,7.13
2019-02-20T19:39:30.486Z,7.50
2019-02-20T19:47:56.962Z,7.53
2019-02-20T19:50:38.444Z,8.27
2019-02-20T19:59:29.531Z,7.00
2019-02-20T20:13:55.277Z,7.13
2019-02-20T20:45:58.971Z,6.73
2019-02-20T21:15:06.478Z,6.63
2019-02-20T21:17:47.744Z,6.40
2019-02-20T21:20:28.453Z,6.07
2019-02-20T21:23:09.413Z,6.73
2019-02-20T21:25:53.597Z,6.30
2019-02-20T21:28:36.544Z,7.20
2019-02-20T21:31:19.628Z,6.10
2019-02-20T22:11:50.467Z,5.90
2019-02-20T22:43:58.084Z,6.70
2019-02-20T22:49:21.567Z,6.37
2019-02-20T22:52:02.344Z,5.93
2019-02-20T22:54:43.574Z,6.10
2019-02-20T22:57:24.575Z,6.23
2019-02-20T23:03:04.872Z,6.07
2019-02-20T23:08:31.557Z,5.93
2019-02-20T23:11:28.598Z,5.00
2019-02-20T23:14:23.900Z,6.73
2019-02-20T23:20:28.160Z,6.13
2019-02-20T23:23:16.405Z,6.13
2019-02-20T23:26:04.663Z,5.70
2019-02-20T23:32:03.151Z,5.50
2019-02-20T23:37:53.191Z,5.47
2019-02-20T23:40:41.235Z,5.60
2019-02-20T23:43:29.399Z,6.03
2019-02-20T23:46:17.503Z,6.47
2019-02-20T23:49:05.708Z,6.30
2019-02-20T23:51:53.852Z,6.30
2019-02-20T23:54:42.171Z,5.70
2019-02-20T23:57:30.273Z,6.73
